sensor_id;sensor_type;location;lat;lon;timestamp;P1;durP1;ratioP1;P2;durP2;ratioP2
57331;SDS011;43164;50.908;18.092;2023-06-26T00:01:25;9.10;;;4.80;;
57331;SDS011;43164;50.908;18.092;2023-06-26T00:04:16;9.00;;;4.90;;
57331;SDS011;43164;50.908;18.092;2023-06-26T00:06:45;11.40;;;5.30;;
57331;SDS011;43164;50.908;18.092;2023-06-26T00:09:13;11.40;;;5.50;;
57331;SDS011;43164;50.908;18.092;2023-06-26T00:11:42;10.10;;;4.70;;
57331;SDS011;43164;50.908;18.092;2023-06-26T00:14:10;10.50;;;4.60;;
57331;SDS011;43164;50.908;18.092;2023-06-26T00:16:38;9.90;;;5.20;;
57331;SDS011;43164;50.908;18.092;2023-06-26T00:19:08;11.70;;;5.20;;
57331;SDS011;43164;50.908;18.092;2023-06-26T00:21:36;10.10;;;5.70;;
57331;SDS011;43164;50.908;18.092;2023-06-26T00:24:04;12.60;;;5.70;;
57331;SDS011;43164;50.908;18.092;2023-06-26T00:26:32;14.10;;;5.20;;
57331;SDS011;43164;50.908;18.092;2023-06-26T00:29:01;10.80;;;4.90;;
57331;SDS011;43164;50.908;18.092;2023-06-26T00:31:30;8.80;;;4.30;;
57331;SDS011;43164;50.908;18.092;2023-06-26T00:33:58;7.60;;;4.00;;
57331;SDS011;43164;50.908;18.092;2023-06-26T00:36:27;11.10;;;4.20;;
57331;SDS011;43164;50.908;18.092;2023-06-26T00:38:55;10.90;;;4.50;;
57331;SDS011;43164;50.908;18.092;2023-06-26T00:41:22;9.30;;;4.80;;
57331;SDS011;43164;50.908;18.092;2023-06-26T00:43:50;9.40;;;4.70;;
57331;SDS011;43164;50.908;18.092;2023-06-26T00:46:18;11.40;;;4.80;;
57331;SDS011;43164;50.908;18.092;2023-06-26T00:48:46;10.80;;;5.10;;
57331;SDS011;43164;50.908;18.092;2023-06-26T00:51:15;9.30;;;4.60;;
57331;SDS011;43164;50.908;18.092;2023-06-26T00:53:44;11.80;;;4.60;;
57331;SDS011;43164;50.908;18.092;2023-06-26T00:56:12;12.50;;;4.80;;
57331;SDS011;43164;50.908;18.092;2023-06-26T00:58:39;10.30;;;5.20;;
57331;SDS011;43164;50.908;18.092;2023-06-26T01:01:07;10.10;;;4.60;;
57331;SDS011;43164;50.908;18.092;2023-06-26T01:03:35;12.20;;;5.80;;
57331;SDS011;43164;50.908;18.092;2023-06-26T01:06:08;10.40;;;5.50;;
57331;SDS011;43164;50.908;18.092;2023-06-26T01:08:39;10.50;;;5.50;;
57331;SDS011;43164;50.908;18.092;2023-06-26T01:11:07;10.70;;;5.40;;
57331;SDS011;43164;50.908;18.092;2023-06-26T01:13:35;10.40;;;5.30;;
57331;SDS011;43164;50.908;18.092;2023-06-26T01:16:02;12.60;;;6.00;;
57331;SDS011;43164;50.908;18.092;2023-06-26T01:18:32;13.00;;;6.60;;
57331;SDS011;43164;50.908;18.092;2023-06-26T01:20:58;10.50;;;6.00;;
57331;SDS011;43164;50.908;18.092;2023-06-26T01:23:34;12.70;;;7.10;;
57331;SDS011;43164;50.908;18.092;2023-06-26T01:26:33;13.20;;;6.40;;
57331;SDS011;43164;50.908;18.092;2023-06-26T01:29:06;11.50;;;6.20;;
57331;SDS011;43164;50.908;18.092;2023-06-26T01:31:38;12.40;;;5.90;;
57331;SDS011;43164;50.908;18.092;2023-06-26T01:34:06;11.90;;;6.10;;
57331;SDS011;43164;50.908;18.092;2023-06-26T01:36:34;9.20;;;4.80;;
57331;SDS011;43164;50.908;18.092;2023-06-26T01:39:04;16.10;;;5.40;;
57331;SDS011;43164;50.908;18.092;2023-06-26T01:41:32;12.60;;;5.20;;
57331;SDS011;43164;50.908;18.092;2023-06-26T01:52:07;11.50;;;4.90;;
57331;SDS011;43164;50.908;18.092;2023-06-26T01:55:09;9.80;;;5.00;;
57331;SDS011;43164;50.908;18.092;2023-06-26T01:58:04;10.30;;;5.10;;
57331;SDS011;43164;50.908;18.092;2023-06-26T02:00:33;9.70;;;5.00;;
57331;SDS011;43164;50.908;18.092;2023-06-26T02:03:01;11.60;;;5.50;;
57331;SDS011;43164;50.908;18.092;2023-06-26T02:05:32;10.90;;;5.10;;
57331;SDS011;43164;50.908;18.092;2023-06-26T02:08:00;11.20;;;4.60;;
57331;SDS011;43164;50.908;18.092;2023-06-26T02:10:29;9.50;;;4.30;;
57331;SDS011;43164;50.908;18.092;2023-06-26T02:12:58;9.70;;;4.80;;
57331;SDS011;43164;50.908;18.092;2023-06-26T02:15:26;11.70;;;4.80;;
57331;SDS011;43164;50.908;18.092;2023-06-26T02:17:54;11.30;;;4.50;;
57331;SDS011;43164;50.908;18.092;2023-06-26T02:20:22;9.50;;;4.50;;
57331;SDS011;43164;50.908;18.092;2023-06-26T02:22:50;11.70;;;4.50;;
57331;SDS011;43164;50.908;18.092;2023-06-26T02:25:19;12.60;;;5.90;;
57331;SDS011;43164;50.908;18.092;2023-06-26T02:27:47;11.60;;;5.70;;
57331;SDS011;43164;50.908;18.092;2023-06-26T02:30:14;13.70;;;5.10;;
57331;SDS011;43164;50.908;18.092;2023-06-26T02:32:43;13.00;;;5.10;;
57331;SDS011;43164;50.908;18.092;2023-06-26T02:35:11;11.20;;;5.40;;
57331;SDS011;43164;50.908;18.092;2023-06-26T02:37:39;14.70;;;6.10;;
57331;SDS011;43164;50.908;18.092;2023-06-26T02:40:08;15.50;;;5.20;;
57331;SDS011;43164;50.908;18.092;2023-06-26T02:42:38;12.20;;;4.90;;
57331;SDS011;43164;50.908;18.092;2023-06-26T02:45:06;11.90;;;5.40;;
57331;SDS011;43164;50.908;18.092;2023-06-26T02:47:35;14.20;;;5.60;;
57331;SDS011;43164;50.908;18.092;2023-06-26T02:50:08;13.90;;;4.60;;
57331;SDS011;43164;50.908;18.092;2023-06-26T02:52:38;11.90;;;4.90;;
57331;SDS011;43164;50.908;18.092;2023-06-26T02:55:06;11.80;;;4.60;;
57331;SDS011;43164;50.908;18.092;2023-06-26T02:57:34;13.60;;;5.20;;
57331;SDS011;43164;50.908;18.092;2023-06-26T03:00:03;12.20;;;4.70;;
57331;SDS011;43164;50.908;18.092;2023-06-26T03:02:38;14.40;;;4.90;;
57331;SDS011;43164;50.908;18.092;2023-06-26T03:05:06;15.80;;;4.30;;
57331;SDS011;43164;50.908;18.092;2023-06-26T03:07:36;15.40;;;5.30;;
57331;SDS011;43164;50.908;18.092;2023-06-26T03:10:11;17.00;;;4.30;;
57331;SDS011;43164;50.908;18.092;2023-06-26T03:12:40;11.00;;;3.70;;
57331;SDS011;43164;50.908;18.092;2023-06-26T03:15:18;14.40;;;3.60;;
57331;SDS011;43164;50.908;18.092;2023-06-26T03:17:46;12.30;;;4.20;;
57331;SDS011;43164;50.908;18.092;2023-06-26T03:20:15;12.30;;;4.10;;
57331;SDS011;43164;50.908;18.092;2023-06-26T03:22:44;11.30;;;4.00;;
57331;SDS011;43164;50.908;18.092;2023-06-26T03:25:13;9.30;;;4.10;;
57331;SDS011;43164;50.908;18.092;2023-06-26T03:27:42;12.00;;;4.20;;
57331;SDS011;43164;50.908;18.092;2023-06-26T03:30:11;8.70;;;4.40;;
57331;SDS011;43164;50.908;18.092;2023-06-26T03:32:41;8.70;;;4.50;;
57331;SDS011;43164;50.908;18.092;2023-06-26T03:35:09;9.70;;;4.20;;
57331;SDS011;43164;50.908;18.092;2023-06-26T03:37:44;13.90;;;4.50;;
57331;SDS011;43164;50.908;18.092;2023-06-26T03:42:52;8.20;;;4.10;;
57331;SDS011;43164;50.908;18.092;2023-06-26T03:45:22;10.90;;;4.70;;
57331;SDS011;43164;50.908;18.092;2023-06-26T03:48:06;12.90;;;4.90;;
57331;SDS011;43164;50.908;18.092;2023-06-26T03:54:16;9.20;;;4.30;;
57331;SDS011;43164;50.908;18.092;2023-06-26T03:56:52;9.80;;;4.50;;
57331;SDS011;43164;50.908;18.092;2023-06-26T03:59:28;8.30;;;4.40;;
57331;SDS011;43164;50.908;18.092;2023-06-26T04:01:59;8.20;;;4.30;;
57331;SDS011;43164;50.908;18.092;2023-06-26T04:04:37;9.50;;;4.40;;
57331;SDS011;43164;50.908;18.092;2023-06-26T04:07:08;9.20;;;4.10;;
57331;SDS011;43164;50.908;18.092;2023-06-26T04:13:08;9.50;;;4.20;;
57331;SDS011;43164;50.908;18.092;2023-06-26T04:32:55;12.20;;;4.40;;
57331;SDS011;43164;50.908;18.092;2023-06-26T04:35:37;10.40;;;4.30;;
57331;SDS011;43164;50.908;18.092;2023-06-26T04:38:13;9.90;;;4.50;;
57331;SDS011;43164;50.908;18.092;2023-06-26T04:50:34;10.40;;;4.60;;
57331;SDS011;43164;50.908;18.092;2023-06-26T05:01:58;8.50;;;4.20;;
57331;SDS011;43164;50.908;18.092;2023-06-26T05:07:06;7.50;;;4.30;;
57331;SDS011;43164;50.908;18.092;2023-06-26T05:09:40;8.90;;;5.00;;
57331;SDS011;43164;50.908;18.092;2023-06-26T05:12:18;9.70;;;5.20;;
57331;SDS011;43164;50.908;18.092;2023-06-26T05:14:49;7.60;;;4.70;;
57331;SDS011;43164;50.908;18.092;2023-06-26T05:17:25;10.30;;;5.20;;
57331;SDS011;43164;50.908;18.092;2023-06-26T05:19:56;11.20;;;5.00;;
57331;SDS011;43164;50.908;18.092;2023-06-26T05:22:34;10.30;;;5.40;;
57331;SDS011;43164;50.908;18.092;2023-06-26T05:25:43;8.50;;;5.10;;
57331;SDS011;43164;50.908;18.092;2023-06-26T05:28:20;8.10;;;4.70;;
57331;SDS011;43164;50.908;18.092;2023-06-26T05:30:53;8.40;;;4.80;;
57331;SDS011;43164;50.908;18.092;2023-06-26T05:33:31;9.70;;;4.60;;
57331;SDS011;43164;50.908;18.092;2023-06-26T05:36:06;8.70;;;4.90;;
57331;SDS011;43164;50.908;18.092;2023-06-26T05:38:45;7.70;;;4.60;;
57331;SDS011;43164;50.908;18.092;2023-06-26T05:41:17;9.50;;;4.50;;
57331;SDS011;43164;50.908;18.092;2023-06-26T05:43:51;8.50;;;4.60;;
57331;SDS011;43164;50.908;18.092;2023-06-26T05:46:21;8.10;;;4.30;;
57331;SDS011;43164;50.908;18.092;2023-06-26T05:49:04;8.50;;;4.40;;
57331;SDS011;43164;50.908;18.092;2023-06-26T05:51:36;9.10;;;4.60;;
57331;SDS011;43164;50.908;18.092;2023-06-26T05:54:18;6.80;;;3.90;;
57331;SDS011;43164;50.908;18.092;2023-06-26T05:57:05;7.70;;;4.30;;
57331;SDS011;43164;50.908;18.092;2023-06-26T06:03:21;8.40;;;4.10;;
57331;SDS011;43164;50.908;18.092;2023-06-26T06:05:57;8.30;;;4.30;;
57331;SDS011;43164;50.908;18.092;2023-06-26T06:08:27;9.40;;;4.20;;
57331;SDS011;43164;50.908;18.092;2023-06-26T06:10:56;8.00;;;4.50;;
57331;SDS011;43164;50.908;18.092;2023-06-26T06:13:37;6.70;;;4.10;;
57331;SDS011;43164;50.908;18.092;2023-06-26T06:16:09;7.70;;;4.60;;
57331;SDS011;43164;50.908;18.092;2023-06-26T06:18:40;7.90;;;4.50;;
57331;SDS011;43164;50.908;18.092;2023-06-26T06:21:14;8.20;;;4.00;;
57331;SDS011;43164;50.908;18.092;2023-06-26T06:23:42;6.90;;;3.90;;
57331;SDS011;43164;50.908;18.092;2023-06-26T06:26:15;8.10;;;4.30;;
57331;SDS011;43164;50.908;18.092;2023-06-26T06:28:47;7.80;;;4.10;;
57331;SDS011;43164;50.908;18.092;2023-06-26T06:31:18;6.00;;;3.90;;
57331;SDS011;43164;50.908;18.092;2023-06-26T06:33:48;7.80;;;4.00;;
57331;SDS011;43164;50.908;18.092;2023-06-26T06:36:21;10.70;;;4.20;;
57331;SDS011;43164;50.908;18.092;2023-06-26T06:38:58;6.60;;;4.20;;
57331;SDS011;43164;50.908;18.092;2023-06-26T06:41:44;7.00;;;3.90;;
57331;SDS011;43164;50.908;18.092;2023-06-26T06:44:21;6.10;;;4.00;;
57331;SDS011;43164;50.908;18.092;2023-06-26T06:46:56;7.30;;;4.30;;
57331;SDS011;43164;50.908;18.092;2023-06-26T06:49:27;6.80;;;3.70;;
57331;SDS011;43164;50.908;18.092;2023-06-26T06:52:03;7.20;;;3.70;;
57331;SDS011;43164;50.908;18.092;2023-06-26T06:57:43;7.50;;;4.20;;
57331;SDS011;43164;50.908;18.092;2023-06-26T07:00:19;7.90;;;3.70;;
57331;SDS011;43164;50.908;18.092;2023-06-26T07:02:54;8.50;;;3.50;;
57331;SDS011;43164;50.908;18.092;2023-06-26T07:08:46;7.30;;;3.60;;
57331;SDS011;43164;50.908;18.092;2023-06-26T07:11:22;5.70;;;3.20;;
57331;SDS011;43164;50.908;18.092;2023-06-26T07:13:52;6.40;;;3.00;;
57331;SDS011;43164;50.908;18.092;2023-06-26T07:16:39;5.80;;;3.40;;
57331;SDS011;43164;50.908;18.092;2023-06-26T07:19:08;5.00;;;3.00;;
57331;SDS011;43164;50.908;18.092;2023-06-26T07:21:44;5.30;;;2.70;;
57331;SDS011;43164;50.908;18.092;2023-06-26T07:24:15;6.50;;;3.10;;
57331;SDS011;43164;50.908;18.092;2023-06-26T07:26:50;7.00;;;3.20;;
57331;SDS011;43164;50.908;18.092;2023-06-26T07:29:19;5.90;;;3.20;;
57331;SDS011;43164;50.908;18.092;2023-06-26T07:32:01;8.20;;;3.70;;
57331;SDS011;43164;50.908;18.092;2023-06-26T07:34:30;6.10;;;3.20;;
57331;SDS011;43164;50.908;18.092;2023-06-26T07:37:03;4.80;;;3.10;;
57331;SDS011;43164;50.908;18.092;2023-06-26T07:39:32;5.90;;;3.10;;
57331;SDS011;43164;50.908;18.092;2023-06-26T07:42:08;7.40;;;3.10;;
57331;SDS011;43164;50.908;18.092;2023-06-26T07:44:41;6.50;;;3.00;;
57331;SDS011;43164;50.908;18.092;2023-06-26T07:47:16;5.20;;;2.80;;
57331;SDS011;43164;50.908;18.092;2023-06-26T07:49:47;4.90;;;2.70;;
57331;SDS011;43164;50.908;18.092;2023-06-26T07:52:32;5.40;;;2.60;;
57331;SDS011;43164;50.908;18.092;2023-06-26T08:05:02;5.80;;;2.90;;
57331;SDS011;43164;50.908;18.092;2023-06-26T08:07:34;5.70;;;2.70;;
57331;SDS011;43164;50.908;18.092;2023-06-26T08:10:09;6.10;;;2.40;;
57331;SDS011;43164;50.908;18.092;2023-06-26T08:12:43;5.10;;;2.70;;
57331;SDS011;43164;50.908;18.092;2023-06-26T08:15:13;6.30;;;2.50;;
57331;SDS011;43164;50.908;18.092;2023-06-26T08:17:43;6.30;;;2.90;;
57331;SDS011;43164;50.908;18.092;2023-06-26T08:20:13;5.70;;;2.80;;
57331;SDS011;43164;50.908;18.092;2023-06-26T08:22:42;5.80;;;3.10;;
57331;SDS011;43164;50.908;18.092;2023-06-26T08:25:13;7.90;;;2.90;;
57331;SDS011;43164;50.908;18.092;2023-06-26T08:27:48;5.00;;;2.70;;
57331;SDS011;43164;50.908;18.092;2023-06-26T08:30:21;6.00;;;2.90;;
57331;SDS011;43164;50.908;18.092;2023-06-26T08:32:57;6.30;;;2.30;;
57331;SDS011;43164;50.908;18.092;2023-06-26T08:35:28;4.60;;;2.30;;
57331;SDS011;43164;50.908;18.092;2023-06-26T08:38:04;4.90;;;2.50;;
57331;SDS011;43164;50.908;18.092;2023-06-26T08:40:33;5.80;;;2.10;;
57331;SDS011;43164;50.908;18.092;2023-06-26T08:43:08;7.70;;;2.70;;
57331;SDS011;43164;50.908;18.092;2023-06-26T08:45:54;4.90;;;2.40;;
57331;SDS011;43164;50.908;18.092;2023-06-26T08:48:34;4.70;;;2.50;;
57331;SDS011;43164;50.908;18.092;2023-06-26T08:51:12;5.70;;;2.50;;
57331;SDS011;43164;50.908;18.092;2023-06-26T08:58:50;5.80;;;2.20;;
57331;SDS011;43164;50.908;18.092;2023-06-26T09:01:26;4.60;;;2.40;;
57331;SDS011;43164;50.908;18.092;2023-06-26T09:04:00;5.80;;;2.40;;
57331;SDS011;43164;50.908;18.092;2023-06-26T09:06:31;4.30;;;2.20;;
57331;SDS011;43164;50.908;18.092;2023-06-26T09:09:09;6.40;;;2.70;;
57331;SDS011;43164;50.908;18.092;2023-06-26T09:18:40;3.70;;;1.90;;
57331;SDS011;43164;50.908;18.092;2023-06-26T09:21:21;4.60;;;2.50;;
57331;SDS011;43164;50.908;18.092;2023-06-26T09:23:58;5.10;;;2.40;;
57331;SDS011;43164;50.908;18.092;2023-06-26T09:26:27;5.60;;;2.40;;
57331;SDS011;43164;50.908;18.092;2023-06-26T09:29:05;6.40;;;2.70;;
57331;SDS011;43164;50.908;18.092;2023-06-26T09:31:36;5.60;;;2.60;;
57331;SDS011;43164;50.908;18.092;2023-06-26T09:34:18;6.40;;;2.50;;
57331;SDS011;43164;50.908;18.092;2023-06-26T09:36:52;5.40;;;2.30;;
57331;SDS011;43164;50.908;18.092;2023-06-26T09:39:30;5.40;;;2.80;;
57331;SDS011;43164;50.908;18.092;2023-06-26T09:42:08;5.90;;;2.40;;
57331;SDS011;43164;50.908;18.092;2023-06-26T09:44:48;5.10;;;2.30;;
57331;SDS011;43164;50.908;18.092;2023-06-26T09:47:20;7.50;;;2.80;;
57331;SDS011;43164;50.908;18.092;2023-06-26T09:49:57;5.30;;;2.70;;
57331;SDS011;43164;50.908;18.092;2023-06-26T09:52:26;5.60;;;2.50;;
57331;SDS011;43164;50.908;18.092;2023-06-26T09:55:09;6.10;;;2.90;;
57331;SDS011;43164;50.908;18.092;2023-06-26T09:57:38;5.60;;;2.50;;
57331;SDS011;43164;50.908;18.092;2023-06-26T10:00:11;5.60;;;2.50;;
57331;SDS011;43164;50.908;18.092;2023-06-26T10:02:41;5.40;;;2.60;;
57331;SDS011;43164;50.908;18.092;2023-06-26T10:05:18;5.10;;;2.20;;
57331;SDS011;43164;50.908;18.092;2023-06-26T10:07:48;4.10;;;2.20;;
57331;SDS011;43164;50.908;18.092;2023-06-26T10:10:28;3.70;;;2.10;;
57331;SDS011;43164;50.908;18.092;2023-06-26T10:12:59;5.20;;;2.30;;
57331;SDS011;43164;50.908;18.092;2023-06-26T10:16:18;5.30;;;2.20;;
57331;SDS011;43164;50.908;18.092;2023-06-26T10:18:56;4.30;;;2.30;;
57331;SDS011;43164;50.908;18.092;2023-06-26T10:21:39;6.70;;;2.50;;
57331;SDS011;43164;50.908;18.092;2023-06-26T10:24:11;4.60;;;2.20;;
57331;SDS011;43164;50.908;18.092;2023-06-26T10:26:47;4.60;;;2.40;;
57331;SDS011;43164;50.908;18.092;2023-06-26T10:29:29;5.90;;;2.20;;
57331;SDS011;43164;50.908;18.092;2023-06-26T10:32:15;5.30;;;2.60;;
57331;SDS011;43164;50.908;18.092;2023-06-26T10:34:54;6.20;;;2.70;;
57331;SDS011;43164;50.908;18.092;2023-06-26T10:40:26;4.60;;;2.30;;
57331;SDS011;43164;50.908;18.092;2023-06-26T10:43:09;4.90;;;2.10;;
57331;SDS011;43164;50.908;18.092;2023-06-26T10:45:45;6.90;;;2.30;;
57331;SDS011;43164;50.908;18.092;2023-06-26T10:48:34;5.70;;;2.60;;
57331;SDS011;43164;50.908;18.092;2023-06-26T10:51:47;5.40;;;2.40;;
57331;SDS011;43164;50.908;18.092;2023-06-26T10:54:27;7.40;;;2.40;;
57331;SDS011;43164;50.908;18.092;2023-06-26T10:57:01;4.20;;;2.20;;
57331;SDS011;43164;50.908;18.092;2023-06-26T10:59:38;5.70;;;2.70;;
57331;SDS011;43164;50.908;18.092;2023-06-26T11:02:14;7.00;;;2.70;;
57331;SDS011;43164;50.908;18.092;2023-06-26T11:04:53;7.10;;;2.60;;
57331;SDS011;43164;50.908;18.092;2023-06-26T11:07:33;5.30;;;2.30;;
57331;SDS011;43164;50.908;18.092;2023-06-26T11:12:43;6.80;;;2.90;;
57331;SDS011;43164;50.908;18.092;2023-06-26T11:18:24;8.70;;;2.60;;
57331;SDS011;43164;50.908;18.092;2023-06-26T11:21:09;4.70;;;2.10;;
57331;SDS011;43164;50.908;18.092;2023-06-26T11:23:45;5.30;;;2.80;;
57331;SDS011;43164;50.908;18.092;2023-06-26T11:26:20;5.50;;;2.70;;
57331;SDS011;43164;50.908;18.092;2023-06-26T11:28:51;4.80;;;2.40;;
57331;SDS011;43164;50.908;18.092;2023-06-26T11:31:42;6.20;;;2.60;;
57331;SDS011;43164;50.908;18.092;2023-06-26T11:34:32;5.10;;;2.40;;
57331;SDS011;43164;50.908;18.092;2023-06-26T11:37:08;4.90;;;2.10;;
57331;SDS011;43164;50.908;18.092;2023-06-26T11:39:40;3.80;;;2.00;;
57331;SDS011;43164;50.908;18.092;2023-06-26T11:42:13;5.10;;;2.40;;
57331;SDS011;43164;50.908;18.092;2023-06-26T11:44:45;4.80;;;2.20;;
57331;SDS011;43164;50.908;18.092;2023-06-26T11:47:17;6.10;;;2.10;;
57331;SDS011;43164;50.908;18.092;2023-06-26T11:49:50;4.40;;;2.40;;
57331;SDS011;43164;50.908;18.092;2023-06-26T11:52:32;4.60;;;2.30;;
57331;SDS011;43164;50.908;18.092;2023-06-26T11:55:08;4.70;;;2.30;;
57331;SDS011;43164;50.908;18.092;2023-06-26T11:57:54;7.10;;;2.70;;
57331;SDS011;43164;50.908;18.092;2023-06-26T12:00:24;4.70;;;2.40;;
57331;SDS011;43164;50.908;18.092;2023-06-26T12:02:54;5.30;;;2.50;;
57331;SDS011;43164;50.908;18.092;2023-06-26T12:05:24;5.50;;;2.50;;
57331;SDS011;43164;50.908;18.092;2023-06-26T12:07:54;5.30;;;2.60;;
57331;SDS011;43164;50.908;18.092;2023-06-26T12:10:31;5.10;;;2.30;;
57331;SDS011;43164;50.908;18.092;2023-06-26T12:13:01;5.00;;;2.50;;
57331;SDS011;43164;50.908;18.092;2023-06-26T12:15:40;5.50;;;2.50;;
57331;SDS011;43164;50.908;18.092;2023-06-26T12:18:23;5.20;;;2.20;;
57331;SDS011;43164;50.908;18.092;2023-06-26T12:20:53;4.20;;;2.00;;
57331;SDS011;43164;50.908;18.092;2023-06-26T12:23:49;4.50;;;2.20;;
57331;SDS011;43164;50.908;18.092;2023-06-26T12:26:27;5.40;;;2.60;;
57331;SDS011;43164;50.908;18.092;2023-06-26T12:29:08;4.80;;;2.50;;
57331;SDS011;43164;50.908;18.092;2023-06-26T12:31:51;6.10;;;2.60;;
57331;SDS011;43164;50.908;18.092;2023-06-26T12:34:20;4.60;;;2.20;;
57331;SDS011;43164;50.908;18.092;2023-06-26T12:37:00;4.80;;;2.20;;
57331;SDS011;43164;50.908;18.092;2023-06-26T12:40:15;6.00;;;2.60;;
57331;SDS011;43164;50.908;18.092;2023-06-26T12:42:56;5.20;;;2.40;;
57331;SDS011;43164;50.908;18.092;2023-06-26T12:45:25;5.40;;;2.50;;
57331;SDS011;43164;50.908;18.092;2023-06-26T12:48:14;4.90;;;2.10;;
57331;SDS011;43164;50.908;18.092;2023-06-26T12:50:56;4.70;;;2.10;;
57331;SDS011;43164;50.908;18.092;2023-06-26T12:56:00;6.30;;;2.50;;
57331;SDS011;43164;50.908;18.092;2023-06-26T12:58:29;4.80;;;2.30;;
57331;SDS011;43164;50.908;18.092;2023-06-26T13:00:58;4.20;;;2.20;;
57331;SDS011;43164;50.908;18.092;2023-06-26T13:03:29;4.40;;;2.20;;
57331;SDS011;43164;50.908;18.092;2023-06-26T13:08:29;5.70;;;2.30;;
57331;SDS011;43164;50.908;18.092;2023-06-26T13:10:59;5.30;;;2.30;;
57331;SDS011;43164;50.908;18.092;2023-06-26T13:13:29;4.70;;;2.20;;
57331;SDS011;43164;50.908;18.092;2023-06-26T13:16:10;6.40;;;2.30;;
57331;SDS011;43164;50.908;18.092;2023-06-26T13:18:40;4.60;;;2.30;;
57331;SDS011;43164;50.908;18.092;2023-06-26T13:21:10;5.10;;;2.10;;
57331;SDS011;43164;50.908;18.092;2023-06-26T13:23:40;5.60;;;2.70;;
57331;SDS011;43164;50.908;18.092;2023-06-26T13:26:15;4.50;;;2.10;;
57331;SDS011;43164;50.908;18.092;2023-06-26T13:28:44;3.70;;;1.60;;
57331;SDS011;43164;50.908;18.092;2023-06-26T13:31:20;6.00;;;2.20;;
57331;SDS011;43164;50.908;18.092;2023-06-26T13:34:01;5.50;;;1.90;;
57331;SDS011;43164;50.908;18.092;2023-06-26T13:36:37;4.10;;;2.10;;
57331;SDS011;43164;50.908;18.092;2023-06-26T13:39:06;4.40;;;2.20;;
57331;SDS011;43164;50.908;18.092;2023-06-26T13:41:40;4.80;;;1.80;;
57331;SDS011;43164;50.908;18.092;2023-06-26T13:44:08;5.60;;;2.30;;
57331;SDS011;43164;50.908;18.092;2023-06-26T13:46:37;5.00;;;2.10;;
57331;SDS011;43164;50.908;18.092;2023-06-26T13:49:12;5.70;;;2.10;;
57331;SDS011;43164;50.908;18.092;2023-06-26T13:51:51;4.10;;;1.80;;
57331;SDS011;43164;50.908;18.092;2023-06-26T13:54:24;4.30;;;1.90;;
57331;SDS011;43164;50.908;18.092;2023-06-26T13:57:03;4.10;;;2.20;;
57331;SDS011;43164;50.908;18.092;2023-06-26T13:59:36;3.90;;;1.80;;
57331;SDS011;43164;50.908;18.092;2023-06-26T14:02:11;3.60;;;2.00;;
57331;SDS011;43164;50.908;18.092;2023-06-26T14:04:39;4.20;;;2.00;;
57331;SDS011;43164;50.908;18.092;2023-06-26T14:07:12;4.30;;;2.00;;
57331;SDS011;43164;50.908;18.092;2023-06-26T14:09:41;4.10;;;1.90;;
57331;SDS011;43164;50.908;18.092;2023-06-26T14:12:11;5.20;;;1.80;;
57331;SDS011;43164;50.908;18.092;2023-06-26T14:14:44;4.90;;;1.90;;
57331;SDS011;43164;50.908;18.092;2023-06-26T14:17:14;5.90;;;2.00;;
57331;SDS011;43164;50.908;18.092;2023-06-26T14:19:50;3.60;;;1.80;;
57331;SDS011;43164;50.908;18.092;2023-06-26T14:22:19;3.80;;;1.80;;
57331;SDS011;43164;50.908;18.092;2023-06-26T14:24:54;5.00;;;2.10;;
57331;SDS011;43164;50.908;18.092;2023-06-26T14:27:23;3.80;;;2.00;;
57331;SDS011;43164;50.908;18.092;2023-06-26T14:29:51;4.60;;;2.10;;
57331;SDS011;43164;50.908;18.092;2023-06-26T14:32:20;4.20;;;1.60;;
57331;SDS011;43164;50.908;18.092;2023-06-26T14:34:52;4.70;;;2.10;;
57331;SDS011;43164;50.908;18.092;2023-06-26T14:37:21;3.80;;;2.00;;
57331;SDS011;43164;50.908;18.092;2023-06-26T14:39:56;5.40;;;2.10;;
57331;SDS011;43164;50.908;18.092;2023-06-26T14:42:27;4.30;;;1.90;;
57331;SDS011;43164;50.908;18.092;2023-06-26T14:45:05;8.20;;;2.10;;
57331;SDS011;43164;50.908;18.092;2023-06-26T14:47:35;4.00;;;1.60;;
57331;SDS011;43164;50.908;18.092;2023-06-26T14:50:18;4.10;;;1.90;;
57331;SDS011;43164;50.908;18.092;2023-06-26T14:56:36;6.00;;;2.00;;
57331;SDS011;43164;50.908;18.092;2023-06-26T14:59:09;3.40;;;1.80;;
57331;SDS011;43164;50.908;18.092;2023-06-26T15:01:44;4.30;;;1.90;;
57331;SDS011;43164;50.908;18.092;2023-06-26T15:04:15;3.90;;;1.90;;
57331;SDS011;43164;50.908;18.092;2023-06-26T15:06:44;3.70;;;1.80;;
57331;SDS011;43164;50.908;18.092;2023-06-26T15:09:12;4.10;;;2.10;;
57331;SDS011;43164;50.908;18.092;2023-06-26T15:11:42;4.70;;;2.10;;
57331;SDS011;43164;50.908;18.092;2023-06-26T15:14:13;4.40;;;1.90;;
57331;SDS011;43164;50.908;18.092;2023-06-26T15:16:59;4.20;;;1.80;;
57331;SDS011;43164;50.908;18.092;2023-06-26T15:19:29;4.00;;;1.90;;
57331;SDS011;43164;50.908;18.092;2023-06-26T15:21:59;6.10;;;2.10;;
57331;SDS011;43164;50.908;18.092;2023-06-26T15:24:29;3.50;;;1.70;;
57331;SDS011;43164;50.908;18.092;2023-06-26T15:26:57;4.90;;;2.00;;
57331;SDS011;43164;50.908;18.092;2023-06-26T15:29:25;4.00;;;1.70;;
57331;SDS011;43164;50.908;18.092;2023-06-26T15:31:58;4.10;;;1.80;;
57331;SDS011;43164;50.908;18.092;2023-06-26T15:34:29;3.20;;;1.70;;
57331;SDS011;43164;50.908;18.092;2023-06-26T15:37:05;4.70;;;1.70;;
57331;SDS011;43164;50.908;18.092;2023-06-26T15:39:33;4.70;;;1.80;;
57331;SDS011;43164;50.908;18.092;2023-06-26T15:42:06;3.90;;;1.70;;
57331;SDS011;43164;50.908;18.092;2023-06-26T15:44:36;5.00;;;1.80;;
57331;SDS011;43164;50.908;18.092;2023-06-26T15:47:04;4.90;;;1.80;;
57331;SDS011;43164;50.908;18.092;2023-06-26T15:49:35;3.40;;;1.60;;
57331;SDS011;43164;50.908;18.092;2023-06-26T15:52:11;4.30;;;1.50;;
57331;SDS011;43164;50.908;18.092;2023-06-26T15:54:39;4.00;;;1.90;;
57331;SDS011;43164;50.908;18.092;2023-06-26T15:57:08;4.20;;;1.60;;
57331;SDS011;43164;50.908;18.092;2023-06-26T15:59:35;4.90;;;1.90;;
57331;SDS011;43164;50.908;18.092;2023-06-26T16:02:04;5.00;;;1.80;;
57331;SDS011;43164;50.908;18.092;2023-06-26T16:04:32;3.50;;;1.60;;
57331;SDS011;43164;50.908;18.092;2023-06-26T16:07:03;3.50;;;1.50;;
57331;SDS011;43164;50.908;18.092;2023-06-26T16:09:32;3.80;;;1.50;;
57331;SDS011;43164;50.908;18.092;2023-06-26T16:12:02;3.30;;;1.70;;
57331;SDS011;43164;50.908;18.092;2023-06-26T16:14:31;3.20;;;1.50;;
57331;SDS011;43164;50.908;18.092;2023-06-26T16:17:00;4.00;;;1.80;;
57331;SDS011;43164;50.908;18.092;2023-06-26T16:19:28;3.50;;;1.60;;
57331;SDS011;43164;50.908;18.092;2023-06-26T16:21:57;4.00;;;1.60;;
57331;SDS011;43164;50.908;18.092;2023-06-26T16:24:27;2.90;;;1.40;;
57331;SDS011;43164;50.908;18.092;2023-06-26T16:26:56;4.30;;;1.70;;
57331;SDS011;43164;50.908;18.092;2023-06-26T16:29:25;3.70;;;1.70;;
57331;SDS011;43164;50.908;18.092;2023-06-26T16:31:56;3.20;;;1.60;;
57331;SDS011;43164;50.908;18.092;2023-06-26T16:34:35;3.90;;;1.60;;
57331;SDS011;43164;50.908;18.092;2023-06-26T16:37:03;4.70;;;2.10;;
57331;SDS011;43164;50.908;18.092;2023-06-26T16:39:35;4.30;;;1.90;;
57331;SDS011;43164;50.908;18.092;2023-06-26T16:42:03;3.30;;;1.50;;
57331;SDS011;43164;50.908;18.092;2023-06-26T16:44:33;3.20;;;1.50;;
57331;SDS011;43164;50.908;18.092;2023-06-26T16:47:03;3.80;;;1.60;;
57331;SDS011;43164;50.908;18.092;2023-06-26T16:49:31;3.50;;;1.80;;
57331;SDS011;43164;50.908;18.092;2023-06-26T16:51:59;4.60;;;1.80;;
57331;SDS011;43164;50.908;18.092;2023-06-26T16:54:29;4.00;;;1.50;;